createdAt,value
2023-03-26T00:00:16.985Z,6.72
2023-03-26T00:05:18.319Z,9.25
2023-03-26T00:10:19.638Z,9.20
2023-03-26T00:15:20.946Z,9.32
2023-03-26T00:20:22.396Z,13.70
2023-03-26T00:25:23.674Z,10.45
2023-03-26T00:30:25.009Z,8.32
2023-03-26T00:35:26.440Z,7.30
2023-03-26T00:40:27.802Z,8.23
2023-03-26T00:45:29.114Z,8.33
2023-03-26T00:50:30.505Z,8.50
2023-03-26T00:55:31.742Z,7.93
2023-03-26T01:00:34.876Z,7.00
2023-03-26T01:05:42.626Z,7.25
2023-03-26T01:10:50.668Z,11.33
2023-03-26T01:15:53.134Z,9.73
2023-03-26T01:21:05.157Z,11.88
2023-03-26T01:26:18.957Z,8.60
2023-03-26T01:31:29.569Z,10.10
2023-03-26T01:36:37.948Z,10.47
2023-03-26T01:41:46.721Z,10.88
2023-03-26T01:46:49.890Z,10.02
2023-03-26T01:51:51.215Z,9.43
2023-03-26T01:57:04.764Z,9.63
2023-03-26T02:02:35.787Z,8.70
2023-03-26T02:07:41.867Z,8.40
2023-03-26T02:12:43.700Z,13.10
2023-03-26T02:17:45.065Z,9.98
2023-03-26T02:22:47.155Z,8.23
2023-03-26T02:27:50.856Z,9.50
2023-03-26T02:32:53.987Z,9.13
2023-03-26T02:37:55.456Z,10.23
2023-03-26T02:42:56.784Z,8.63
2023-03-26T02:48:00.860Z,7.20
2023-03-26T02:53:02.566Z,12.80
2023-03-26T02:58:03.861Z,10.10
2023-03-26T03:03:07.403Z,11.13
2023-03-26T03:08:09.341Z,9.30
2023-03-26T03:13:10.894Z,10.95
2023-03-26T03:18:12.177Z,9.17
2023-03-26T03:23:13.607Z,9.48
2023-03-26T03:28:18.136Z,8.15
2023-03-26T03:33:20.576Z,7.18
2023-03-26T03:38:21.970Z,6.88
2023-03-26T03:43:23.235Z,8.87
2023-03-26T03:48:24.601Z,9.25
2023-03-26T03:53:26.315Z,9.20
2023-03-26T03:58:28.288Z,11.10
2023-03-26T04:03:33.545Z,14.55
2023-03-26T04:08:36.276Z,7.27
2023-03-26T04:13:37.550Z,7.63
2023-03-26T04:18:39.022Z,13.23
2023-03-26T04:23:40.340Z,6.75
2023-03-26T04:28:53.307Z,7.97
2023-03-26T04:34:00.060Z,8.10
2023-03-26T04:39:04.854Z,8.05
2023-03-26T04:44:06.789Z,11.18
2023-03-26T04:49:08.086Z,9.82
2023-03-26T04:54:12.543Z,7.40
2023-03-26T04:59:16.411Z,8.33
2023-03-26T05:04:17.755Z,9.88
2023-03-26T05:09:19.533Z,10.30
2023-03-26T05:14:20.901Z,8.73
2023-03-26T05:19:22.378Z,6.90
2023-03-26T05:24:24.665Z,7.87
2023-03-26T05:29:26.975Z,10.57
2023-03-26T05:34:28.520Z,10.30
2023-03-26T05:39:29.838Z,5.67
2023-03-26T05:44:31.217Z,8.15
2023-03-26T05:49:32.486Z,10.90
2023-03-26T05:54:33.777Z,6.75
2023-03-26T05:59:35.282Z,10.00
2023-03-26T06:04:40.825Z,8.30
2023-03-26T06:09:42.322Z,10.50
2023-03-26T06:14:43.679Z,8.63
2023-03-26T06:19:44.923Z,9.65
2023-03-26T06:24:46.205Z,7.47
2023-03-26T06:29:47.983Z,6.90
2023-03-26T06:34:49.289Z,10.40
2023-03-26T06:39:50.621Z,14.10
2023-03-26T06:44:52.121Z,10.48
2023-03-26T06:49:53.471Z,11.85
2023-03-26T06:54:54.760Z,9.13
2023-03-26T06:59:56.118Z,10.93
2023-03-26T07:04:57.491Z,9.50
2023-03-26T07:09:58.776Z,10.90
2023-03-26T07:15:01.686Z,11.27
2023-03-26T07:20:03.757Z,7.57
2023-03-26T07:25:05.444Z,9.55
2023-03-26T07:30:21.261Z,9.33
2023-03-26T07:35:22.604Z,7.47
2023-03-26T07:40:46.278Z,7.78
2023-03-26T07:45:47.748Z,9.87
2023-03-26T07:50:49.249Z,13.40
2023-03-26T07:55:57.899Z,10.40
2023-03-26T08:01:03.454Z,11.55
2023-03-26T08:06:10.976Z,10.10
2023-03-26T08:11:35.605Z,11.13
2023-03-26T08:16:40.017Z,8.35
2023-03-26T08:21:45.009Z,7.07
2023-03-26T08:26:57.470Z,10.73
2023-03-26T08:31:59.847Z,9.25
2023-03-26T08:37:01.463Z,8.33
2023-03-26T08:42:21.521Z,11.73
2023-03-26T08:47:35.006Z,10.07
2023-03-26T08:52:55.440Z,9.65
2023-03-26T08:58:05.877Z,7.10
2023-03-26T09:03:22.329Z,7.60
2023-03-26T09:08:30.285Z,5.93
2023-03-26T09:13:53.774Z,9.23
2023-03-26T09:18:55.110Z,8.25
2023-03-26T09:24:35.442Z,8.15
2023-03-26T09:29:44.905Z,8.97
2023-03-26T09:35:01.712Z,6.90
2023-03-26T09:40:04.978Z,7.40
2023-03-26T09:45:25.291Z,8.40
2023-03-26T09:50:29.971Z,7.38
2023-03-26T09:55:49.836Z,8.67
2023-03-26T10:01:08.663Z,6.60
2023-03-26T10:06:28.672Z,5.07
2023-03-26T10:11:36.049Z,5.82
2023-03-26T10:16:56.736Z,7.07
2023-03-26T10:22:18.409Z,5.67
2023-03-26T10:27:25.799Z,4.70
2023-03-26T10:32:27.255Z,7.13
2023-03-26T10:37:34.450Z,5.82
2023-03-26T10:42:36.947Z,6.75
2023-03-26T10:47:47.188Z,6.30
2023-03-26T10:52:58.985Z,7.28
2023-03-26T10:58:26.772Z,4.77
2023-03-26T11:03:31.266Z,4.78
2023-03-26T11:08:51.287Z,4.00
2023-03-26T11:13:52.600Z,5.87
2023-03-26T11:18:53.913Z,5.32
2023-03-26T11:24:05.030Z,7.40
2023-03-26T11:29:32.334Z,5.43
2023-03-26T11:34:35.275Z,5.53
2023-03-26T11:39:45.355Z,4.50
2023-03-26T11:44:49.616Z,5.65
2023-03-26T11:49:53.183Z,4.13
2023-03-26T11:54:58.443Z,4.20
2023-03-26T12:00:21.056Z,4.72
2023-03-26T12:05:26.609Z,6.10
2023-03-26T12:10:28.063Z,4.78
2023-03-26T12:15:31.373Z,3.47
2023-03-26T12:20:34.730Z,4.93
2023-03-26T12:25:37.061Z,4.18
2023-03-26T12:30:39.536Z,5.03
2023-03-26T12:35:40.903Z,8.00
2023-03-26T12:40:43.244Z,8.27
2023-03-26T12:45:44.667Z,4.63
2023-03-26T12:50:51.839Z,6.00
2023-03-26T12:56:17.425Z,5.15
2023-03-26T13:01:33.162Z,8.27
2023-03-26T13:07:00.043Z,4.00
2023-03-26T13:12:09.074Z,5.03
2023-03-26T13:17:19.370Z,4.60
2023-03-26T13:22:30.553Z,3.53
2023-03-26T13:27:49.159Z,3.10
2023-03-26T13:33:12.111Z,5.77
2023-03-26T13:38:13.419Z,4.67
2023-03-26T13:43:31.119Z,6.18
2023-03-26T13:49:01.836Z,4.73
2023-03-26T13:54:06.318Z,6.27
2023-03-26T13:59:12.866Z,6.05
2023-03-26T14:04:17.672Z,4.33
2023-03-26T14:09:22.972Z,6.83
2023-03-26T14:14:48.947Z,4.47
2023-03-26T14:20:12.108Z,11.73
2023-03-26T14:25:19.629Z,5.13
2023-03-26T14:30:39.525Z,9.13
2023-03-26T14:35:46.915Z,4.30
2023-03-26T14:40:56.228Z,4.28
2023-03-26T14:46:13.207Z,4.30
2023-03-26T14:51:23.621Z,3.58
2023-03-26T14:56:37.269Z,5.35
2023-03-26T15:01:49.828Z,3.27
2023-03-26T15:07:10.234Z,4.53
2023-03-26T15:12:12.463Z,2.07
2023-03-26T15:17:34.312Z,5.35
2023-03-26T15:22:50.822Z,3.58
2023-03-26T15:28:08.260Z,3.70
2023-03-26T15:33:22.594Z,3.78
2023-03-26T15:38:29.758Z,4.17
2023-03-26T15:44:22.501Z,3.58
2023-03-26T15:49:26.199Z,2.85
2023-03-26T15:54:33.138Z,4.10
2023-03-26T15:59:42.206Z,2.60
2023-03-26T16:04:57.369Z,3.13
2023-03-26T16:10:13.441Z,3.05
2023-03-26T16:15:15.206Z,2.92
2023-03-26T16:20:31.126Z,2.93
2023-03-26T16:25:33.472Z,2.90
2023-03-26T16:30:34.921Z,2.20
2023-03-26T16:35:55.163Z,4.13
2023-03-26T16:41:00.135Z,2.58
2023-03-26T16:46:05.720Z,4.63
2023-03-26T16:51:11.489Z,3.65
2023-03-26T16:56:17.877Z,3.20
2023-03-26T17:01:28.082Z,2.45
2023-03-26T17:06:29.428Z,2.88
2023-03-26T17:11:38.376Z,2.53
2023-03-26T17:16:47.556Z,4.45
2023-03-26T17:21:51.752Z,2.90
2023-03-26T17:26:59.125Z,4.32
2023-03-26T17:32:00.634Z,1.65
2023-03-26T17:37:04.193Z,3.80
2023-03-26T17:42:18.801Z,2.80
2023-03-26T17:47:23.666Z,2.50
2023-03-26T17:52:38.723Z,4.28
2023-03-26T17:57:42.622Z,6.63
2023-03-26T18:02:51.161Z,5.73
2023-03-26T18:07:52.559Z,3.90
2023-03-26T18:13:07.261Z,4.70
2023-03-26T18:18:11.829Z,4.07
2023-03-26T18:23:45.859Z,5.45
2023-03-26T18:28:52.874Z,5.73
2023-03-26T18:33:56.601Z,3.17
2023-03-26T18:38:58.460Z,4.53
2023-03-26T18:44:04.486Z,2.70
2023-03-26T18:49:06.774Z,3.15
2023-03-26T18:54:09.305Z,4.87
2023-03-26T18:59:35.042Z,3.72
2023-03-26T19:04:37.254Z,1.30
2023-03-26T19:09:39.020Z,3.20
2023-03-26T19:14:59.146Z,4.82
2023-03-26T19:20:00.824Z,4.63
2023-03-26T19:25:02.433Z,5.80
2023-03-26T19:30:03.879Z,5.83
2023-03-26T19:35:19.705Z,1.95
2023-03-26T19:40:29.785Z,2.55
2023-03-26T19:45:33.793Z,1.77
2023-03-26T19:50:36.728Z,2.90
2023-03-26T19:55:39.544Z,3.43
2023-03-26T20:00:40.856Z,2.75
2023-03-26T20:05:42.481Z,2.25
2023-03-26T20:10:43.864Z,2.07
2023-03-26T20:15:46.996Z,3.65
2023-03-26T20:20:48.382Z,2.00
2023-03-26T20:25:52.718Z,2.72
2023-03-26T20:30:54.524Z,5.03
2023-03-26T20:35:56.871Z,3.93
2023-03-26T20:40:58.395Z,5.95
2023-03-26T20:45:59.698Z,4.13
2023-03-26T20:51:01.444Z,3.58
2023-03-26T20:56:03.500Z,2.75
2023-03-26T21:01:05.112Z,3.70
2023-03-26T21:06:10.408Z,2.78
2023-03-26T21:11:26.577Z,3.83
2023-03-26T21:16:28.998Z,3.50
2023-03-26T21:21:46.120Z,3.28
2023-03-26T21:26:59.051Z,3.90
2023-03-26T21:32:00.807Z,5.75
2023-03-26T21:37:02.337Z,4.50
2023-03-26T21:42:04.377Z,4.22
2023-03-26T21:47:10.152Z,3.17
2023-03-26T21:52:15.164Z,4.47
2023-03-26T21:57:43.139Z,3.30
2023-03-26T22:02:54.527Z,4.23
2023-03-26T22:07:57.010Z,5.20
2023-03-26T22:12:58.857Z,4.40
2023-03-26T22:18:01.000Z,4.53
2023-03-26T22:23:03.110Z,5.65
2023-03-26T22:28:04.416Z,5.87
2023-03-26T22:33:08.239Z,5.03
2023-03-26T22:38:09.926Z,5.93
2023-03-26T22:43:11.477Z,3.70
2023-03-26T22:48:13.262Z,5.35
2023-03-26T22:53:14.554Z,5.33
2023-03-26T22:58:16.808Z,5.82
2023-03-26T23:03:19.278Z,4.20
2023-03-26T23:08:20.653Z,4.60
2023-03-26T23:13:22.245Z,4.40
2023-03-26T23:18:24.126Z,4.30
2023-03-26T23:23:29.409Z,5.13
2023-03-26T23:28:32.025Z,5.05
2023-03-26T23:33:35.312Z,5.30
2023-03-26T23:38:43.249Z,4.15
2023-03-26T23:43:53.400Z,3.60
2023-03-26T23:48:59.576Z,4.13
2023-03-26T23:54:01.470Z,3.65
2023-03-26T23:59:03.509Z,5.23
